createdAt,value
2019-05-07T00:02:19.384Z,93.10
2019-05-07T00:04:52.139Z,92.90
2019-05-07T00:07:22.479Z,93.10
2019-05-07T00:09:52.987Z,94.00
2019-05-07T00:12:24.392Z,93.70
2019-05-07T00:15:01.193Z,93.40
2019-05-07T00:17:26.698Z,93.50
2019-05-07T00:19:57.075Z,93.30
2019-05-07T00:22:27.412Z,93.30
2019-05-07T00:24:57.756Z,93.90
2019-05-07T00:27:28.099Z,93.70
2019-05-07T00:29:58.536Z,93.90
2019-05-07T00:32:28.837Z,93.90
2019-05-07T00:35:02.664Z,93.80
2019-05-07T00:37:43.215Z,93.90
2019-05-07T00:40:32.511Z,94.30
2019-05-07T00:43:16.086Z,94.60
2019-05-07T00:45:56.367Z,94.40
2019-05-07T00:48:25.240Z,94.20
2019-05-07T00:51:15.231Z,94.20
2019-05-07T00:53:45.568Z,94.20
2019-05-07T00:56:15.872Z,94.20
2019-05-07T00:58:46.222Z,94.40
2019-05-07T01:01:16.520Z,94.70
2019-05-07T01:03:46.864Z,94.90
2019-05-07T01:06:17.188Z,94.70
2019-05-07T01:08:47.575Z,94.70
2019-05-07T01:11:17.942Z,94.90
2019-05-07T01:13:49.346Z,95.00
2019-05-07T01:16:22.042Z,95.00
2019-05-07T01:18:53.575Z,95.00
2019-05-07T01:21:23.562Z,95.20
2019-05-07T01:23:58.606Z,95.00
2019-05-07T01:26:28.913Z,95.10
2019-05-07T01:28:59.251Z,95.10
2019-05-07T01:31:33.518Z,95.20
2019-05-07T01:34:28.549Z,95.50
2019-05-07T01:36:58.856Z,95.40
2019-05-07T01:39:29.193Z,95.40
2019-05-07T01:42:18.558Z,95.40
2019-05-07T01:44:48.914Z,95.20
2019-05-07T01:47:19.277Z,95.30
2019-05-07T01:49:49.624Z,95.30
2019-05-07T01:52:19.931Z,95.10
2019-05-07T01:54:52.280Z,95.20
2019-05-07T01:57:23.140Z,95.20
2019-05-07T01:59:53.714Z,95.30
2019-05-07T02:02:37.423Z,95.30
2019-05-07T02:05:32.750Z,95.30
2019-05-07T02:08:05.569Z,95.90
2019-05-07T02:10:42.645Z,95.70
2019-05-07T02:13:12.789Z,95.40
2019-05-07T02:15:57.357Z,95.50
2019-05-07T02:18:15.049Z,95.50
2019-05-07T02:20:45.448Z,95.50
2019-05-07T02:23:15.755Z,96.10
2019-05-07T02:25:46.090Z,95.80
2019-05-07T02:28:16.394Z,95.80
2019-05-07T02:30:46.734Z,95.60
2019-05-07T02:33:17.051Z,95.60
2019-05-07T02:35:47.410Z,95.80
2019-05-07T02:38:23.525Z,96.60
2019-05-07T02:40:58.054Z,96.40
2019-05-07T02:43:28.421Z,96.20
2019-05-07T02:46:30.999Z,96.10
2019-05-07T02:49:14.634Z,96.00
2019-05-07T02:51:59.988Z,96.10
2019-05-07T02:54:53.878Z,96.00
2019-05-07T02:57:24.355Z,96.00
2019-05-07T02:59:54.787Z,96.10
2019-05-07T03:02:25.128Z,96.00
2019-05-07T03:04:55.746Z,96.20
2019-05-07T03:07:26.183Z,96.20
2019-05-07T03:09:57.606Z,96.20
2019-05-07T03:12:27.947Z,96.30
2019-05-07T03:14:58.345Z,96.30
2019-05-07T03:17:28.684Z,96.40
2019-05-07T03:20:03.112Z,96.50
2019-05-07T03:22:33.778Z,96.60
2019-05-07T03:25:13.547Z,96.80
2019-05-07T03:27:44.064Z,96.80
2019-05-07T03:30:36.636Z,96.60
2019-05-07T03:33:17.950Z,96.60
2019-05-07T03:35:56.378Z,96.70
2019-05-07T03:38:23.406Z,96.90
2019-05-07T03:40:53.711Z,96.80
2019-05-07T03:43:26.556Z,96.70
2019-05-07T03:46:03.579Z,96.60
2019-05-07T03:48:34.911Z,96.70
2019-05-07T03:51:05.284Z,96.90
2019-05-07T03:53:35.637Z,96.80
2019-05-07T03:56:05.936Z,97.00
2019-05-07T03:58:36.288Z,97.00
2019-05-07T04:01:06.591Z,97.10
2019-05-07T04:03:36.928Z,97.10
2019-05-07T04:06:07.325Z,97.20
2019-05-07T04:08:37.661Z,97.20
2019-05-07T04:11:07.962Z,97.10
2019-05-07T04:13:38.306Z,97.00
2019-05-07T04:16:08.654Z,96.60
2019-05-07T04:18:39.132Z,96.60
2019-05-07T04:21:09.468Z,96.80
2019-05-07T04:23:39.775Z,96.60
2019-05-07T04:26:23.265Z,96.60
2019-05-07T04:29:05.948Z,96.50
2019-05-07T04:31:43.072Z,96.30
2019-05-07T04:34:17.061Z,96.90
2019-05-07T04:36:49.322Z,97.20
2019-05-07T04:39:22.929Z,97.20
2019-05-07T04:41:53.037Z,97.20
2019-05-07T04:44:23.905Z,96.90
2019-05-07T04:46:54.322Z,96.60
2019-05-07T04:49:24.646Z,96.70
2019-05-07T04:52:05.778Z,96.60
2019-05-07T04:54:36.166Z,96.60
2019-05-07T04:57:25.616Z,96.30
2019-05-07T04:59:57.454Z,96.20
2019-05-07T05:02:47.386Z,96.20
2019-05-07T05:05:18.726Z,95.90
2019-05-07T05:07:49.083Z,96.00
2019-05-07T05:10:19.452Z,96.00
2019-05-07T05:12:49.800Z,95.90
2019-05-07T05:15:22.063Z,95.90
2019-05-07T05:17:53.966Z,95.90
2019-05-07T05:20:33.599Z,95.70
2019-05-07T05:23:12.157Z,95.60
2019-05-07T05:25:43.101Z,95.50
2019-05-07T05:28:14.278Z,95.30
2019-05-07T05:30:49.230Z,95.20
2019-05-07T05:33:19.562Z,95.00
2019-05-07T05:35:49.899Z,94.80
2019-05-07T05:38:22.132Z,94.80
2019-05-07T05:40:52.344Z,95.00
2019-05-07T05:43:28.806Z,95.00
2019-05-07T05:46:02.736Z,94.80
2019-05-07T05:48:33.477Z,94.40
2019-05-07T05:51:42.956Z,94.20
2019-05-07T05:54:34.769Z,94.40
2019-05-07T05:57:28.046Z,94.20
2019-05-07T06:00:25.459Z,93.90
2019-05-07T06:03:19.768Z,93.60
2019-05-07T06:05:58.614Z,93.10
2019-05-07T06:08:34.884Z,92.60
2019-05-07T06:11:21.833Z,92.60
2019-05-07T06:14:06.269Z,92.60
2019-05-07T06:16:42.013Z,92.70
2019-05-07T06:19:17.051Z,92.80
2019-05-07T06:21:56.045Z,92.30
2019-05-07T06:24:37.371Z,92.30
2019-05-07T06:27:07.719Z,91.90
2019-05-07T06:29:38.045Z,91.60
2019-05-07T06:32:12.016Z,91.40
2019-05-07T06:34:44.667Z,91.00
2019-05-07T06:37:14.063Z,90.60
2019-05-07T06:39:54.837Z,90.40
2019-05-07T06:42:52.375Z,90.20
2019-05-07T06:45:35.170Z,90.20
2019-05-07T06:48:03.996Z,89.60
2019-05-07T06:50:34.339Z,88.80
2019-05-07T06:53:04.766Z,87.00
2019-05-07T06:55:35.259Z,87.30
2019-05-07T06:58:06.863Z,87.90
2019-05-07T07:00:56.731Z,86.00
2019-05-07T07:03:36.347Z,85.80
2019-05-07T07:06:14.437Z,84.00
2019-05-07T07:08:59.276Z,83.00
2019-05-07T07:11:37.788Z,81.80
2019-05-07T07:14:08.122Z,82.50
2019-05-07T07:16:38.757Z,83.30
2019-05-07T07:19:09.051Z,82.00
2019-05-07T07:21:39.408Z,81.20
2019-05-07T07:24:09.740Z,80.10
2019-05-07T07:26:42.094Z,79.90
2019-05-07T07:29:13.930Z,79.90
2019-05-07T07:31:52.751Z,80.00
2019-05-07T07:34:23.837Z,79.70
2019-05-07T07:37:09.815Z,79.60
2019-05-07T07:39:37.655Z,79.60
2019-05-07T07:42:09.246Z,79.30
2019-05-07T07:44:56.638Z,79.00
2019-05-07T07:47:26.952Z,78.70
2019-05-07T07:49:57.325Z,78.50
2019-05-07T07:52:28.726Z,78.50
2019-05-07T07:54:59.080Z,77.90
2019-05-07T07:57:46.163Z,76.40
2019-05-07T08:00:32.914Z,75.50
2019-05-07T08:03:07.113Z,76.40
2019-05-07T08:05:40.286Z,76.10
2019-05-07T08:08:12.672Z,75.50
2019-05-07T08:10:43.230Z,74.80
2019-05-07T08:13:13.538Z,72.70
2019-05-07T08:15:45.610Z,70.60
2019-05-07T08:18:17.266Z,68.80
2019-05-07T08:20:47.691Z,68.30
2019-05-07T08:23:17.998Z,66.70
2019-05-07T08:25:48.337Z,66.00
2019-05-07T08:28:22.789Z,65.10
2019-05-07T08:31:00.543Z,65.00
2019-05-07T08:33:34.691Z,64.60
2019-05-07T08:36:14.337Z,62.10
2019-05-07T08:38:52.728Z,57.90
2019-05-07T08:41:24.914Z,56.40
2019-05-07T08:44:09.118Z,54.90
2019-05-07T08:46:47.416Z,55.90
2019-05-07T08:49:31.718Z,53.10
2019-05-07T08:52:03.103Z,51.50
2019-05-07T08:54:34.616Z,50.80
2019-05-07T08:57:05.061Z,50.70
2019-05-07T08:59:35.955Z,48.90
2019-05-07T09:02:06.258Z,48.90
2019-05-07T09:04:36.600Z,49.70
2019-05-07T09:07:06.994Z,48.40
2019-05-07T09:09:37.427Z,46.10
2019-05-07T09:12:07.741Z,45.80
2019-05-07T09:14:38.083Z,45.90
2019-05-07T09:17:08.420Z,44.30
2019-05-07T09:19:50.106Z,44.40
2019-05-07T09:22:12.677Z,45.80
2019-05-07T09:24:42.938Z,45.70
2019-05-07T09:27:22.387Z,44.70
2019-05-07T09:30:29.856Z,43.90
2019-05-07T09:33:08.899Z,43.50
2019-05-07T09:35:50.106Z,43.00
2019-05-07T09:38:22.188Z,42.90
2019-05-07T09:40:52.548Z,44.20
2019-05-07T09:43:22.950Z,45.20
2019-05-07T09:45:53.259Z,43.90
2019-05-07T09:48:23.591Z,42.90
2019-05-07T09:50:53.891Z,43.50
2019-05-07T09:53:24.241Z,42.10
2019-05-07T09:55:54.545Z,39.00
2019-05-07T09:58:35.750Z,39.40
2019-05-07T10:00:57.885Z,40.20
2019-05-07T10:03:28.221Z,38.30
2019-05-07T10:05:58.541Z,38.60
2019-05-07T10:08:28.874Z,38.00
2019-05-07T10:10:59.183Z,38.40
2019-05-07T10:13:46.803Z,37.60
2019-05-07T10:16:23.092Z,37.20
2019-05-07T10:18:53.471Z,36.30
2019-05-07T10:21:23.786Z,37.80
2019-05-07T10:23:54.188Z,36.60
2019-05-07T10:26:24.507Z,35.60
2019-05-07T10:28:55.823Z,35.60
2019-05-07T10:31:26.130Z,35.30
2019-05-07T10:33:56.465Z,35.60
2019-05-07T10:36:26.792Z,34.40
2019-05-07T10:38:57.121Z,34.60
2019-05-07T10:41:27.435Z,33.10
2019-05-07T10:43:57.776Z,34.10
2019-05-07T10:46:50.187Z,34.10
2019-05-07T10:49:24.673Z,33.00
2019-05-07T10:51:55.062Z,33.70
2019-05-07T10:54:25.483Z,34.70
2019-05-07T10:56:55.778Z,34.50
2019-05-07T10:59:26.132Z,34.40
2019-05-07T11:02:06.073Z,35.40
2019-05-07T11:04:42.619Z,37.80
2019-05-07T11:07:09.026Z,34.40
2019-05-07T11:09:39.360Z,33.20
2019-05-07T11:12:09.661Z,30.70
2019-05-07T11:14:40.013Z,31.30
2019-05-07T11:17:33.233Z,30.30
2019-05-07T11:20:03.927Z,30.20
2019-05-07T11:22:34.350Z,29.60
2019-05-07T11:25:04.715Z,28.40
2019-05-07T11:27:35.040Z,28.40
2019-05-07T11:30:05.974Z,28.50
2019-05-07T11:32:36.321Z,25.80
2019-05-07T11:35:06.863Z,26.10
2019-05-07T11:37:37.687Z,25.20
2019-05-07T11:40:08.331Z,24.90
2019-05-07T11:43:02.532Z,25.20
2019-05-07T11:45:39.362Z,24.00
2019-05-07T11:48:09.661Z,24.50
2019-05-07T11:51:03.329Z,24.60
2019-05-07T11:53:26.987Z,24.10
2019-05-07T11:55:57.292Z,24.40
2019-05-07T11:58:27.634Z,24.00
2019-05-07T12:01:18.340Z,23.50
2019-05-07T12:03:48.798Z,23.80
2019-05-07T12:06:19.191Z,22.50
2019-05-07T12:08:51.974Z,21.60
2019-05-07T12:11:21.898Z,20.30
2019-05-07T12:13:52.391Z,21.70
2019-05-07T12:16:22.761Z,22.80
2019-05-07T12:18:55.421Z,23.50
2019-05-07T12:21:25.031Z,22.60
2019-05-07T12:23:55.371Z,21.20
2019-05-07T12:26:25.696Z,21.30
2019-05-07T12:28:56.031Z,21.30
2019-05-07T12:31:45.431Z,21.30
2019-05-07T12:34:28.692Z,20.90
2019-05-07T12:36:59.051Z,21.10
2019-05-07T12:39:29.381Z,21.20
2019-05-07T12:41:59.763Z,20.50
2019-05-07T12:44:31.876Z,19.60
2019-05-07T12:47:02.042Z,20.40
2019-05-07T12:49:32.551Z,19.90
2019-05-07T12:52:12.665Z,20.10
2019-05-07T12:54:52.438Z,19.70
2019-05-07T12:57:22.893Z,19.10
2019-05-07T12:59:53.235Z,18.80
2019-05-07T13:02:52.126Z,18.60
2019-05-07T13:05:22.574Z,19.60
2019-05-07T13:07:54.251Z,19.60
2019-05-07T13:10:24.690Z,19.20
2019-05-07T13:12:54.954Z,19.10
2019-05-07T13:15:28.014Z,19.50
2019-05-07T13:17:57.237Z,19.00
2019-05-07T13:20:27.694Z,18.60
2019-05-07T13:22:57.999Z,19.20
2019-05-07T13:25:28.733Z,19.90
2019-05-07T13:27:59.132Z,20.00
2019-05-07T13:30:29.517Z,19.70
2019-05-07T13:33:01.970Z,19.40
2019-05-07T13:35:32.804Z,20.60
2019-05-07T13:38:23.823Z,19.80
2019-05-07T13:41:22.782Z,19.90
2019-05-07T13:44:12.437Z,17.90
2019-05-07T13:46:44.955Z,17.60
2019-05-07T13:49:15.238Z,18.30
2019-05-07T13:51:45.926Z,20.10
2019-05-07T13:54:16.431Z,18.60
2019-05-07T13:56:46.877Z,18.50
2019-05-07T13:59:17.398Z,17.60
2019-05-07T14:01:59.955Z,17.40
2019-05-07T14:04:32.516Z,19.10
2019-05-07T14:07:02.566Z,19.80
2019-05-07T14:09:32.886Z,20.50
2019-05-07T14:12:03.290Z,19.70
2019-05-07T14:14:34.469Z,19.10
2019-05-07T14:17:05.167Z,19.00
2019-05-07T14:19:35.630Z,18.70
2019-05-07T14:22:15.200Z,18.10
2019-05-07T14:24:37.929Z,18.20
2019-05-07T14:27:08.269Z,18.90
2019-05-07T14:29:38.617Z,18.60
2019-05-07T14:32:24.202Z,18.70
2019-05-07T14:35:13.488Z,18.60
2019-05-07T14:37:47.447Z,18.50
2019-05-07T14:40:17.996Z,18.50
2019-05-07T14:42:54.752Z,18.60
2019-05-07T14:45:25.087Z,18.80
2019-05-07T14:47:55.395Z,19.10
2019-05-07T14:50:25.739Z,19.00
2019-05-07T14:52:56.059Z,18.90
2019-05-07T14:55:26.412Z,19.40
2019-05-07T14:57:56.790Z,19.40
2019-05-07T15:00:27.145Z,19.10
2019-05-07T15:02:57.554Z,18.70
2019-05-07T15:05:27.936Z,18.60
2019-05-07T15:08:08.254Z,18.80
2019-05-07T15:10:32.643Z,19.40
2019-05-07T15:13:02.967Z,18.80
2019-05-07T15:15:33.312Z,18.70
2019-05-07T15:18:12.507Z,18.30
2019-05-07T15:20:42.441Z,19.20
2019-05-07T15:23:17.176Z,18.60
2019-05-07T15:26:06.579Z,17.80
2019-05-07T15:28:38.563Z,17.70
2019-05-07T15:31:20.832Z,18.10
2019-05-07T15:33:52.320Z,18.10
2019-05-07T15:36:23.771Z,18.00
2019-05-07T15:38:54.091Z,18.20
2019-05-07T15:41:24.545Z,19.60
2019-05-07T15:43:55.040Z,20.00
2019-05-07T15:46:25.384Z,20.70
2019-05-07T15:48:55.688Z,20.00
2019-05-07T15:51:26.020Z,19.70
2019-05-07T15:53:57.847Z,19.00
2019-05-07T15:56:28.227Z,18.50
2019-05-07T15:58:58.547Z,18.30
2019-05-07T16:01:28.894Z,18.30
2019-05-07T16:03:59.226Z,18.30
2019-05-07T16:06:29.558Z,18.10
2019-05-07T16:09:04.172Z,18.30
2019-05-07T16:11:34.273Z,18.30
2019-05-07T16:14:14.966Z,18.90
2019-05-07T16:16:47.400Z,19.40
2019-05-07T16:19:22.681Z,19.30
2019-05-07T16:21:53.041Z,19.50
2019-05-07T16:24:23.365Z,20.00
2019-05-07T16:26:54.080Z,19.50
2019-05-07T16:29:24.469Z,19.70
2019-05-07T16:31:54.817Z,19.80
2019-05-07T16:34:25.171Z,21.40
2019-05-07T16:36:55.506Z,21.60
2019-05-07T16:39:25.814Z,21.70
2019-05-07T16:41:56.297Z,21.80
2019-05-07T16:44:26.739Z,22.00
2019-05-07T16:46:57.685Z,22.10
2019-05-07T16:49:28.970Z,22.30
2019-05-07T16:52:01.684Z,22.70
2019-05-07T16:54:31.429Z,23.30
2019-05-07T16:57:33.657Z,23.90
2019-05-07T17:00:05.426Z,24.20
2019-05-07T17:02:43.718Z,25.20
2019-05-07T17:05:14.953Z,25.40
2019-05-07T17:07:52.133Z,25.80
2019-05-07T17:10:22.541Z,26.00
2019-05-07T17:12:52.867Z,26.20
2019-05-07T17:15:23.312Z,26.40
2019-05-07T17:17:59.308Z,26.80
2019-05-07T17:20:29.843Z,26.70
2019-05-07T17:23:02.754Z,27.00
2019-05-07T17:25:38.037Z,27.30
2019-05-07T17:28:09.109Z,27.70
2019-05-07T17:30:41.890Z,28.00
2019-05-07T17:33:13.238Z,28.10
2019-05-07T17:35:46.078Z,28.50
2019-05-07T17:38:15.585Z,29.00
2019-05-07T17:40:47.372Z,29.20
2019-05-07T17:43:17.864Z,29.60
2019-05-07T17:45:52.076Z,29.70
2019-05-07T17:48:23.207Z,29.90
2019-05-07T17:51:24.754Z,30.50
2019-05-07T17:53:59.935Z,30.70
2019-05-07T17:56:32.022Z,31.30
2019-05-07T17:59:02.819Z,31.50
2019-05-07T18:01:55.031Z,31.90
2019-05-07T18:04:25.527Z,32.40
2019-05-07T18:06:55.864Z,32.40
2019-05-07T18:09:26.170Z,32.50
2019-05-07T18:11:56.567Z,33.20
2019-05-07T18:14:27.023Z,33.80
2019-05-07T18:17:12.551Z,34.00
2019-05-07T18:19:45.119Z,34.70
2019-05-07T18:22:15.602Z,35.30
2019-05-07T18:24:46.856Z,35.60
2019-05-07T18:27:22.593Z,36.10
2019-05-07T18:29:52.952Z,36.50
2019-05-07T18:32:28.009Z,37.20
2019-05-07T18:34:58.485Z,37.70
2019-05-07T18:37:28.899Z,37.50
2019-05-07T18:39:59.387Z,38.40
2019-05-07T18:42:29.740Z,38.20
2019-05-07T18:45:02.115Z,38.00
2019-05-07T18:47:33.146Z,38.60
2019-05-07T18:50:03.752Z,38.70
2019-05-07T18:52:34.354Z,39.00
2019-05-07T18:55:05.177Z,39.20
2019-05-07T18:57:37.096Z,39.40
2019-05-07T19:00:09.781Z,40.00
2019-05-07T19:02:40.278Z,40.00
2019-05-07T19:05:13.092Z,39.90
2019-05-07T19:07:43.647Z,40.30
2019-05-07T19:10:14.151Z,40.60
2019-05-07T19:12:44.616Z,40.50
2019-05-07T19:15:15.348Z,40.60
2019-05-07T19:17:45.800Z,40.80
2019-05-07T19:20:16.387Z,41.00
2019-05-07T19:22:48.002Z,40.90
2019-05-07T19:25:18.629Z,40.90
2019-05-07T19:27:49.055Z,41.20
2019-05-07T19:30:21.804Z,41.60
2019-05-07T19:32:52.234Z,42.00
2019-05-07T19:35:23.235Z,41.80
2019-05-07T19:37:53.726Z,41.90
2019-05-07T19:40:24.276Z,42.20
2019-05-07T19:42:54.863Z,42.00
2019-05-07T19:45:25.452Z,41.90
2019-05-07T19:47:55.787Z,42.20
2019-05-07T19:50:27.302Z,42.10
2019-05-07T19:52:57.723Z,42.50
2019-05-07T19:55:32.863Z,42.20
2019-05-07T19:58:05.143Z,42.30
2019-05-07T20:00:35.573Z,42.20
2019-05-07T20:03:05.995Z,42.40
2019-05-07T20:05:37.429Z,42.50
2019-05-07T20:08:08.175Z,42.60
2019-05-07T20:10:45.151Z,42.60
2019-05-07T20:13:15.679Z,42.90
2019-05-07T20:15:52.077Z,43.30
2019-05-07T20:18:23.511Z,43.30
2019-05-07T20:20:53.882Z,43.20
2019-05-07T20:23:24.266Z,43.30
2019-05-07T20:25:54.974Z,43.40
2019-05-07T20:28:27.447Z,43.80
2019-05-07T20:30:57.895Z,43.70
2019-05-07T20:33:28.204Z,44.30
2019-05-07T20:35:59.790Z,44.80
2019-05-07T20:38:31.957Z,45.60
2019-05-07T20:41:02.667Z,45.70
2019-05-07T20:43:33.019Z,45.40
2019-05-07T20:46:03.822Z,46.30
2019-05-07T20:48:34.991Z,46.00
2019-05-07T20:51:05.609Z,46.40
2019-05-07T20:53:53.549Z,46.40
2019-05-07T20:56:27.906Z,47.20
2019-05-07T20:58:58.235Z,47.30
2019-05-07T21:01:28.693Z,46.90
2019-05-07T21:03:59.218Z,47.40
2019-05-07T21:06:31.964Z,47.70
2019-05-07T21:09:05.888Z,47.30
2019-05-07T21:11:38.074Z,47.40
2019-05-07T21:14:08.371Z,47.40
2019-05-07T21:16:38.730Z,47.50
2019-05-07T21:19:09.131Z,48.00
2019-05-07T21:21:39.492Z,47.60
2019-05-07T21:24:09.882Z,47.50
2019-05-07T21:26:42.264Z,47.60
2019-05-07T21:29:13.721Z,48.00
2019-05-07T21:31:44.494Z,48.10
2019-05-07T21:34:15.001Z,48.50
2019-05-07T21:36:46.600Z,48.80
2019-05-07T21:39:18.102Z,48.90
2019-05-07T21:41:48.474Z,49.30
2019-05-07T21:44:18.846Z,49.60
2019-05-07T21:46:49.198Z,50.10
2019-05-07T21:49:19.515Z,50.40
2019-05-07T21:51:49.869Z,50.30
2019-05-07T21:54:26.262Z,50.60
2019-05-07T21:57:18.633Z,51.60
2019-05-07T21:59:49.159Z,51.80
2019-05-07T22:02:23.602Z,52.10
2019-05-07T22:04:53.961Z,52.00
2019-05-07T22:07:24.307Z,52.60
2019-05-07T22:09:54.610Z,53.80
2019-05-07T22:12:24.973Z,55.40
2019-05-07T22:14:55.282Z,56.30
2019-05-07T22:17:25.626Z,57.40
2019-05-07T22:19:55.975Z,57.70
2019-05-07T22:22:26.326Z,58.10
2019-05-07T22:24:56.688Z,58.30
2019-05-07T22:27:29.377Z,58.70
2019-05-07T22:30:02.342Z,58.80
2019-05-07T22:32:44.599Z,59.10
2019-05-07T22:35:22.674Z,59.80
2019-05-07T22:38:12.187Z,60.20
2019-05-07T22:40:44.186Z,63.40
2019-05-07T22:43:14.610Z,65.10
2019-05-07T22:45:45.214Z,68.10
2019-05-07T22:48:16.692Z,68.30
2019-05-07T22:50:46.998Z,69.20
2019-05-07T22:53:17.353Z,70.00
2019-05-07T22:55:47.665Z,71.40
2019-05-07T22:58:26.439Z,72.00
2019-05-07T23:01:02.438Z,72.10
2019-05-07T23:03:33.807Z,72.50
2019-05-07T23:06:08.164Z,73.20
2019-05-07T23:08:42.113Z,73.70
2019-05-07T23:11:12.282Z,74.10
2019-05-07T23:13:44.450Z,74.60
2019-05-07T23:16:15.018Z,76.00
2019-05-07T23:18:45.353Z,76.30
2019-05-07T23:21:15.662Z,76.30
2019-05-07T23:23:46.016Z,78.20
2019-05-07T23:26:16.332Z,78.10
2019-05-07T23:28:46.682Z,79.30
2019-05-07T23:31:16.986Z,79.90
2019-05-07T23:33:47.338Z,79.30
2019-05-07T23:36:17.758Z,79.20
2019-05-07T23:38:48.117Z,79.30
2019-05-07T23:41:42.041Z,78.20
2019-05-07T23:44:22.853Z,78.30
2019-05-07T23:46:53.412Z,77.90
2019-05-07T23:49:23.759Z,78.50
2019-05-07T23:51:54.086Z,79.10
2019-05-07T23:54:24.690Z,84.00
2019-05-07T23:57:06.134Z,85.30
2019-05-07T23:59:26.958Z,84.20
